Time;durP1;ratioP1;P1;durP2;ratioP2;P2;SDS_P1;SDS_P2;PMS_P1;PMS_P2;Temp;Humidity;BMP_temperature;BMP_pressure;BME280_temperature;BME280_humidity;BME280_pressure;Samples;Min_cycle;Max_cycle;Signal;HPM_P1;HPM_P2
2021/07/30 00:01:06;;;;;;;5.78;3.83;;;15.10;99.90;;;;;;5070686;28;20079;-86
2021/07/30 00:03:35;;;;;;;5.20;3.40;;;15.10;99.90;;;;;;5055659;28;20495;-84
2021/07/30 00:06:01;;;;;;;7.47;3.25;;;15.00;99.90;;;;;;5055765;28;20061;-85
2021/07/30 00:08:28;;;;;;;6.03;3.08;;;15.00;99.90;;;;;;5055690;28;20041;-83
2021/07/30 00:10:55;;;;;;;5.20;3.20;;;15.00;99.90;;;;;;5071544;28;20547;-85
2021/07/30 00:13:21;;;;;;;5.45;3.22;;;14.90;99.90;;;;;;5055477;28;20037;-85
2021/07/30 00:15:49;;;;;;;4.55;3.47;;;14.80;99.90;;;;;;5055964;28;20413;-85
2021/07/30 00:18:15;;;;;;;6.28;3.15;;;14.80;99.90;;;;;;5070877;28;20069;-86
2021/07/30 00:20:42;;;;;;;5.38;3.28;;;14.70;99.90;;;;;;5055224;28;20564;-86
2021/07/30 00:23:11;;;;;;;5.55;3.38;;;14.70;99.90;;;;;;5067621;28;20077;-86
2021/07/30 00:25:41;;;;;;;5.28;3.42;;;14.60;99.90;;;;;;5036288;28;20037;-86
2021/07/30 00:28:12;;;;;;;5.00;3.38;;;14.60;99.90;;;;;;5018406;28;20401;-86
2021/07/30 00:30:40;;;;;;;6.72;3.50;;;14.50;99.90;;;;;;5018333;28;20034;-85
2021/07/30 00:33:08;;;;;;;5.07;3.35;;;14.50;99.90;;;;;;5017407;28;20040;-85
2021/07/30 00:35:34;;;;;;;5.55;3.65;;;14.50;99.90;;;;;;5034143;28;20090;-85
2021/07/30 00:38:01;;;;;;;5.13;3.22;;;14.40;99.90;;;;;;5034396;28;20029;-84
2021/07/30 00:40:27;;;;;;;5.18;3.45;;;14.40;99.90;;;;;;5033450;28;20180;-85
2021/07/30 00:42:55;;;;;;;5.53;3.40;;;14.40;99.90;;;;;;5050276;28;20068;-83
2021/07/30 00:45:22;;;;;;;6.70;3.85;;;14.40;99.90;;;;;;5020946;28;20041;-85
2021/07/30 00:47:49;;;;;;;5.90;3.55;;;14.40;99.90;;;;;;5029882;28;20029;-84
2021/07/30 00:50:16;;;;;;;5.43;3.63;;;14.40;99.90;;;;;;5033882;28;20030;-83
2021/07/30 00:52:44;;;;;;;6.10;3.35;;;14.40;99.90;;;;;;5001097;28;20631;-83
2021/07/30 00:55:11;;;;;;;5.63;3.70;;;14.30;99.90;;;;;;5017597;28;20061;-85
2021/07/30 00:57:38;;;;;;;4.07;3.22;;;14.30;99.90;;;;;;5017294;28;20048;-86
2021/07/30 01:00:05;;;;;;;5.72;3.30;;;14.30;99.90;;;;;;5026122;28;20044;-85
2021/07/30 01:02:33;;;;;;;6.35;3.90;;;14.30;99.90;;;;;;5052949;28;20036;-84
2021/07/30 01:04:59;;;;;;;6.13;3.78;;;14.30;99.90;;;;;;5055671;28;20026;-85
2021/07/30 01:07:28;;;;;;;5.55;3.65;;;14.30;99.90;;;;;;5051085;28;20025;-84
2021/07/30 01:09:54;;;;;;;4.90;3.40;;;14.30;99.90;;;;;;5056384;28;20126;-83
2021/07/30 01:12:22;;;;;;;5.75;3.70;;;14.30;99.90;;;;;;5056585;28;20128;-85
2021/07/30 01:14:49;;;;;;;6.55;4.05;;;14.30;99.90;;;;;;5038037;28;20096;-84
2021/07/30 01:17:15;;;;;;;5.38;3.63;;;14.30;99.90;;;;;;5045401;28;20471;-85
2021/07/30 01:19:42;;;;;;;6.78;3.90;;;14.30;99.90;;;;;;5051241;28;20034;-86
2021/07/30 01:22:17;;;;;;;7.05;4.00;;;14.30;99.90;;;;;;5038196;28;20474;-84
2021/07/30 01:24:44;;;;;;;6.50;3.90;;;14.30;99.90;;;;;;5037263;28;20033;-85
2021/07/30 01:27:11;;;;;;;7.03;3.92;;;14.30;99.90;;;;;;5053848;28;20129;-85
2021/07/30 01:29:37;;;;;;;6.80;3.88;;;14.30;99.90;;;;;;5053299;28;20025;-85
2021/07/30 01:32:03;;;;;;;7.60;4.20;;;14.20;99.90;;;;;;5052999;28;20037;-85
2021/07/30 01:34:29;;;;;;;6.18;3.83;;;14.20;99.90;;;;;;5053096;28;20040;-86
2021/07/30 01:36:55;;;;;;;6.28;4.55;;;14.10;99.90;;;;;;5054085;28;20037;-86
2021/07/30 01:39:21;;;;;;;8.88;4.25;;;14.10;99.90;;;;;;5052603;28;20086;-85
2021/07/30 01:41:47;;;;;;;6.82;3.90;;;14.10;99.90;;;;;;5052991;28;20041;-85
2021/07/30 01:44:15;;;;;;;6.40;3.67;;;14.00;99.90;;;;;;5054260;28;20358;-85
2021/07/30 01:46:42;;;;;;;5.68;3.65;;;14.00;99.90;;;;;;5053063;28;20481;-85
2021/07/30 01:49:08;;;;;;;5.13;3.70;;;14.00;99.90;;;;;;5053991;28;20039;-85
2021/07/30 01:51:34;;;;;;;5.57;3.80;;;13.90;99.90;;;;;;5052618;28;20444;-86
2021/07/30 01:54:02;;;;;;;5.82;4.10;;;13.90;99.90;;;;;;5052798;28;20405;-85
2021/07/30 01:56:29;;;;;;;7.47;3.97;;;13.90;99.90;;;;;;5052513;28;20043;-86
2021/07/30 01:58:55;;;;;;;5.88;4.13;;;13.80;99.90;;;;;;5052497;28;20037;-85
2021/07/30 02:01:23;;;;;;;6.43;4.13;;;13.90;99.90;;;;;;5052230;28;20047;-86
2021/07/30 02:03:49;;;;;;;6.70;3.97;;;13.90;99.90;;;;;;5053294;28;20041;-86
2021/07/30 02:06:15;;;;;;;6.07;4.00;;;13.80;99.90;;;;;;5052609;28;20365;-86
2021/07/30 02:08:43;;;;;;;6.28;3.90;;;13.80;99.90;;;;;;5052113;28;20447;-86
2021/07/30 02:11:10;;;;;;;6.22;4.07;;;13.80;99.90;;;;;;5052300;28;20095;-85
2021/07/30 02:16:21;;;;;;;7.80;4.32;;;13.70;99.90;;;;;;5053835;28;20436;-85
2021/07/30 02:18:55;;;;;;;7.68;4.25;;;13.60;99.90;;;;;;5053248;28;20025;-86
2021/07/30 02:21:23;;;;;;;5.30;3.60;;;13.60;99.90;;;;;;5053768;28;20082;-86
2021/07/30 02:23:50;;;;;;;6.45;3.38;;;13.50;99.90;;;;;;5031595;28;20045;-86
2021/07/30 02:26:17;;;;;;;5.82;4.10;;;13.50;99.90;;;;;;5048946;28;20052;-87
2021/07/30 02:28:43;;;;;;;5.57;3.72;;;13.50;99.90;;;;;;5031984;28;20504;-87
2021/07/30 02:31:11;;;;;;;5.65;3.97;;;13.50;99.90;;;;;;5049257;28;20444;-87
2021/07/30 02:33:38;;;;;;;5.55;3.72;;;13.50;99.90;;;;;;5015620;28;20073;-86
2021/07/30 02:36:07;;;;;;;7.40;3.92;;;13.50;99.90;;;;;;5015971;28;20040;-88
2021/07/30 02:38:36;;;;;;;5.30;3.85;;;13.50;99.90;;;;;;5031954;28;20045;-86
2021/07/30 02:41:03;;;;;;;4.80;3.35;;;13.60;99.90;;;;;;5046110;28;20139;-86
2021/07/30 02:43:35;;;;;;;5.53;3.78;;;13.60;99.90;;;;;;5031658;28;20034;-85
2021/07/30 02:46:02;;;;;;;6.75;3.55;;;13.60;99.90;;;;;;5047731;28;20037;-86
2021/07/30 02:48:41;;;;;;;6.93;4.10;;;13.60;99.90;;;;;;5047907;28;20061;-85
2021/07/30 02:51:07;;;;;;;6.28;3.97;;;13.60;99.90;;;;;;5048489;28;20036;-86
2021/07/30 02:53:43;;;;;;;5.57;4.00;;;13.60;99.90;;;;;;5030995;28;20070;-85
2021/07/30 02:56:12;;;;;;;8.30;4.88;;;13.70;99.90;;;;;;5033546;28;20056;-85
2021/07/30 02:58:39;;;;;;;7.55;3.42;;;13.60;99.90;;;;;;5032258;28;20076;-85
2021/07/30 03:01:05;;;;;;;5.82;3.63;;;13.60;99.90;;;;;;5031949;28;20069;-86
2021/07/30 03:03:35;;;;;;;8.07;3.80;;;13.60;99.90;;;;;;5032866;28;20052;-86
2021/07/30 03:06:04;;;;;;;5.60;3.83;;;13.60;99.90;;;;;;5048507;28;20037;-86
2021/07/30 03:08:52;;;;;;;5.82;3.80;;;13.60;99.90;;;;;;5048147;28;20037;-85
2021/07/30 03:11:18;;;;;;;6.40;4.20;;;13.60;99.90;;;;;;5048443;28;20128;-87
2021/07/30 03:13:47;;;;;;;4.20;3.17;;;13.50;99.90;;;;;;5049474;28;20120;-86
2021/07/30 03:16:15;;;;;;;5.55;3.90;;;13.50;99.90;;;;;;5052157;28;20080;-85
2021/07/30 03:18:44;;;;;;;5.88;3.70;;;13.50;99.90;;;;;;5035569;28;20041;-86
2021/07/30 03:21:14;;;;;;;7.15;4.15;;;13.50;99.90;;;;;;5035993;28;20045;-87
2021/07/30 03:23:41;;;;;;;7.50;3.90;;;13.40;99.90;;;;;;5052153;28;20085;-85
2021/07/30 03:26:12;;;;;;;5.75;3.40;;;13.50;99.90;;;;;;5036863;28;20045;-86
2021/07/30 03:28:39;;;;;;;5.43;3.58;;;13.50;99.90;;;;;;5036348;28;20048;-86
2021/07/30 03:31:05;;;;;;;5.80;3.58;;;13.40;99.90;;;;;;5036698;28;20045;-85
2021/07/30 03:33:31;;;;;;;6.60;4.28;;;13.40;99.90;;;;;;5035330;28;20037;-86
2021/07/30 03:35:57;;;;;;;5.43;3.53;;;13.40;99.90;;;;;;5052408;28;20037;-86
2021/07/30 03:38:24;;;;;;;5.75;3.65;;;13.40;99.90;;;;;;5035627;28;20037;-86
2021/07/30 03:40:51;;;;;;;5.82;3.50;;;13.40;99.90;;;;;;5019164;28;20037;-86
2021/07/30 03:43:18;;;;;;;5.40;3.50;;;13.30;99.90;;;;;;5052152;28;20068;-86
2021/07/30 03:45:44;;;;;;;5.93;3.63;;;13.30;99.90;;;;;;5052090;28;20504;-86
2021/07/30 03:48:12;;;;;;;6.13;3.60;;;13.30;99.90;;;;;;5035372;28;20120;-86
2021/07/30 03:50:38;;;;;;;5.10;3.58;;;13.20;99.90;;;;;;5035602;28;20115;-86
2021/07/30 03:53:04;;;;;;;6.78;4.60;;;13.20;99.90;;;;;;5035420;28;20080;-86
2021/07/30 03:55:31;;;;;;;7.05;4.13;;;13.30;99.90;;;;;;5036325;28;20033;-86
2021/07/30 03:57:57;;;;;;;6.18;4.00;;;13.30;99.90;;;;;;5036499;28;20120;-86
2021/07/30 04:00:24;;;;;;;5.10;3.63;;;13.30;99.90;;;;;;5036234;28;20426;-86
2021/07/30 04:02:49;;;;;;;6.82;3.60;;;13.30;99.90;;;;;;5051632;28;20136;-86
2021/07/30 04:05:15;;;;;;;7.03;3.67;;;13.30;99.90;;;;;;5051513;28;20069;-85
2021/07/30 04:07:41;;;;;;;4.93;3.40;;;13.40;99.90;;;;;;5035221;28;20055;-87
2021/07/30 04:10:09;;;;;;;5.43;3.42;;;13.40;99.90;;;;;;5051679;28;20037;-86
2021/07/30 04:12:36;;;;;;;7.00;3.80;;;13.50;99.90;;;;;;5036343;28;20377;-85
2021/07/30 04:15:03;;;;;;;8.00;3.95;;;13.50;99.90;;;;;;5035219;28;20465;-87
2021/07/30 04:17:30;;;;;;;5.82;3.70;;;13.60;99.90;;;;;;5035059;28;20132;-86
2021/07/30 04:19:56;;;;;;;6.82;3.67;;;13.60;99.90;;;;;;5050698;28;20501;-86
2021/07/30 04:22:22;;;;;;;7.15;3.70;;;13.60;99.90;;;;;;5019965;28;20120;-86
2021/07/30 04:24:48;;;;;;;4.93;3.40;;;13.70;99.90;;;;;;5055651;28;20037;-86
2021/07/30 04:27:16;;;;;;;5.47;3.53;;;13.70;99.90;;;;;;5054324;28;20033;-86
2021/07/30 04:29:43;;;;;;;6.72;3.60;;;13.70;99.90;;;;;;5054444;28;20033;-87
2021/07/30 04:32:11;;;;;;;7.30;4.35;;;13.70;99.90;;;;;;5055618;28;20037;-86
2021/07/30 04:34:41;;;;;;;5.47;3.83;;;13.80;99.90;;;;;;5049368;28;20037;-88
2021/07/30 04:37:07;;;;;;;7.60;4.07;;;13.80;99.90;;;;;;5026921;28;20068;-87
2021/07/30 04:39:37;;;;;;;8.35;4.75;;;13.80;99.90;;;;;;5054443;28;20033;-87
2021/07/30 04:42:05;;;;;;;10.40;4.90;;;13.80;99.90;;;;;;5039949;28;20476;-87
2021/07/30 04:44:35;;;;;;;9.93;5.50;;;13.90;99.90;;;;;;5064842;28;20045;-88
2021/07/30 04:47:02;;;;;;;8.80;5.00;;;13.90;99.90;;;;;;5035188;28;20045;-87
2021/07/30 04:49:28;;;;;;;7.82;4.75;;;13.90;99.90;;;;;;5034494;28;20094;-86
2021/07/30 04:51:55;;;;;;;8.48;4.28;;;14.00;99.90;;;;;;5059582;28;20038;-85
2021/07/30 04:54:20;;;;;;;6.97;3.78;;;14.00;99.90;;;;;;5035690;28;20545;-86
2021/07/30 04:56:46;;;;;;;5.75;4.03;;;14.10;99.90;;;;;;5034977;28;20037;-85
2021/07/30 04:59:13;;;;;;;6.60;3.67;;;14.20;99.90;;;;;;5002042;28;20038;-84
2021/07/30 05:01:42;;;;;;;7.20;3.78;;;14.30;99.90;;;;;;5046283;28;20473;-85
2021/07/30 05:04:11;;;;;;;7.50;3.92;;;14.30;99.90;;;;;;5007485;28;20408;-84
2021/07/30 05:06:38;;;;;;;7.15;4.40;;;14.30;99.90;;;;;;5018182;28;20056;-84
2021/07/30 05:09:06;;;;;;;6.10;3.63;;;14.40;99.90;;;;;;5051986;28;20049;-86
2021/07/30 05:11:37;;;;;;;8.20;3.88;;;14.50;99.90;;;;;;5030879;28;20041;-86
2021/07/30 05:14:04;;;;;;;7.05;3.55;;;14.50;99.90;;;;;;5022842;28;20043;-87
2021/07/30 05:16:34;;;;;;;4.90;3.20;;;14.60;99.90;;;;;;5022980;28;20043;-86
2021/07/30 05:19:07;;;;;;;7.53;4.00;;;14.60;99.90;;;;;;5046839;28;20064;-85
2021/07/30 05:21:33;;;;;;;7.63;4.10;;;14.70;99.90;;;;;;5030984;28;20060;-85
2021/07/30 05:24:03;;;;;;;7.32;3.95;;;14.60;99.90;;;;;;5014406;28;20481;-85
2021/07/30 05:26:30;;;;;;;6.07;4.07;;;14.70;99.90;;;;;;5018999;28;20445;-85
2021/07/30 05:29:05;;;;;;;6.82;4.00;;;14.70;99.90;;;;;;5027394;28;20029;-85
2021/07/30 05:31:32;;;;;;;4.97;3.10;;;14.80;99.90;;;;;;5011196;28;20034;-86
2021/07/30 05:34:04;;;;;;;8.07;3.60;;;14.80;99.90;;;;;;5019140;28;20032;-86
2021/07/30 05:36:34;;;;;;;7.18;4.18;;;14.80;99.90;;;;;;5030523;28;20052;-85
2021/07/30 05:39:08;;;;;;;7.35;4.47;;;14.90;99.90;;;;;;5014713;28;20033;-85
2021/07/30 05:41:58;;;;;;;6.88;4.63;;;14.90;99.90;;;;;;5016908;28;20037;-87
2021/07/30 05:44:25;;;;;;;7.10;4.78;;;14.90;99.90;;;;;;5033973;28;20514;-85
2021/07/30 05:47:10;;;;;;;6.45;4.63;;;15.00;99.90;;;;;;5015635;28;20092;-88
2021/07/30 05:49:40;;;;;;;7.82;4.60;;;15.10;99.90;;;;;;5017925;28;20037;-90
2021/07/30 05:52:11;;;;;;;8.00;4.63;;;15.20;99.90;;;;;;5033361;28;20503;-87
2021/07/30 05:54:40;;;;;;;7.88;4.10;;;15.20;99.90;;;;;;5024664;28;20547;-86
2021/07/30 05:57:07;;;;;;;7.47;4.70;;;15.30;99.90;;;;;;5035479;28;20549;-86
2021/07/30 05:59:38;;;;;;;8.13;4.90;;;15.40;99.90;;;;;;5032976;28;20372;-87
2021/07/30 06:02:05;;;;;;;8.43;4.25;;;15.50;99.90;;;;;;5007784;28;20115;-87
2021/07/30 06:04:31;;;;;;;9.40;5.30;;;15.60;99.90;;;;;;5024147;28;20079;-86
2021/07/30 06:06:58;;;;;;;9.13;5.70;;;15.70;99.90;;;;;;5016679;28;20034;-87
2021/07/30 06:09:27;;;;;;;8.93;5.43;;;15.90;99.90;;;;;;5033415;28;20037;-86
2021/07/30 06:11:56;;;;;;;8.48;5.45;;;16.10;99.90;;;;;;5027194;28;20099;-87
2021/07/30 06:14:22;;;;;;;7.63;5.15;;;16.20;99.90;;;;;;5013469;28;20045;-86
2021/07/30 06:16:49;;;;;;;5.78;4.05;;;16.30;99.90;;;;;;5048727;28;20034;-87
2021/07/30 06:19:17;;;;;;;7.60;4.28;;;16.40;99.90;;;;;;5015132;28;20096;-87
2021/07/30 06:21:45;;;;;;;8.93;4.78;;;16.40;99.90;;;;;;5033518;28;20046;-87
2021/07/30 06:24:11;;;;;;;6.43;4.25;;;16.50;99.90;;;;;;5048290;28;20099;-87
2021/07/30 06:26:38;;;;;;;6.22;4.03;;;16.50;99.90;;;;;;5020468;28;20033;-87
2021/07/30 06:29:05;;;;;;;9.73;4.70;;;16.50;99.90;;;;;;5031017;28;20077;-86
2021/07/30 06:31:33;;;;;;;9.38;5.20;;;16.70;99.90;;;;;;5015841;28;20604;-87
2021/07/30 06:34:02;;;;;;;8.82;5.15;;;16.70;99.90;;;;;;5031201;28;20072;-88
2021/07/30 06:36:30;;;;;;;8.70;5.40;;;16.80;99.90;;;;;;5032073;28;20060;-87
2021/07/30 06:39:08;;;;;;;7.47;4.68;;;17.00;99.90;;;;;;5044747;28;20069;-88
2021/07/30 06:41:36;;;;;;;7.80;4.70;;;17.10;99.90;;;;;;5011261;28;20071;-87
2021/07/30 06:44:18;;;;;;;10.35;5.82;;;17.30;99.90;;;;;;5001905;28;20401;-88
2021/07/30 06:46:44;;;;;;;10.43;5.65;;;17.30;99.90;;;;;;5031383;28;20045;-87
2021/07/30 06:49:11;;;;;;;10.18;5.30;;;17.40;99.90;;;;;;5033246;28;20037;-87
2021/07/30 06:51:40;;;;;;;10.43;5.25;;;17.50;99.90;;;;;;5030922;28;20057;-88
2021/07/30 06:54:09;;;;;;;8.45;5.82;;;17.60;99.90;;;;;;5023937;28;20555;-87
2021/07/30 06:56:38;;;;;;;9.50;5.40;;;17.70;99.90;;;;;;5007346;28;20045;-87
2021/07/30 06:59:06;;;;;;;8.35;5.10;;;17.80;99.90;;;;;;4999583;28;20042;-87
2021/07/30 07:01:41;;;;;;;9.45;5.20;;;17.90;99.90;;;;;;5019733;28;20532;-87
2021/07/30 07:04:19;;;;;;;7.90;4.68;;;18.10;99.90;;;;;;5037596;28;20037;-87
2021/07/30 07:06:49;;;;;;;10.10;5.60;;;18.20;99.90;;;;;;5038751;28;20021;-89
2021/07/30 07:09:39;;;;;;;8.30;5.25;;;18.20;99.90;;;;;;5055577;28;20420;-88
2021/07/30 07:12:07;;;;;;;8.90;5.57;;;18.30;99.90;;;;;;5039017;28;20042;-88
2021/07/30 07:14:36;;;;;;;9.20;5.60;;;18.40;99.90;;;;;;5030304;28;20519;-89
2021/07/30 07:17:15;;;;;;;10.90;6.13;;;18.50;99.90;;;;;;5035549;28;20025;-89
2021/07/30 07:20:00;;;;;;;7.97;5.40;;;18.60;99.90;;;;;;5030090;28;20038;-88
2021/07/30 07:22:39;;;;;;;11.13;5.47;;;18.70;99.90;;;;;;5028085;28;20046;-89
2021/07/30 07:25:10;;;;;;;12.40;5.32;;;18.70;99.90;;;;;;5036663;28;20135;-89
2021/07/30 07:27:59;;;;;;;11.57;5.93;;;18.80;99.90;;;;;;5033653;28;20050;-88
2021/07/30 07:30:31;;;;;;;10.05;5.50;;;18.80;99.90;;;;;;5026888;28;20041;-88
2021/07/30 07:33:02;;;;;;;10.13;6.07;;;18.90;99.90;;;;;;5036582;28;20496;-89
2021/07/30 07:35:30;;;;;;;10.02;5.45;;;19.00;99.90;;;;;;5029473;28;20030;-89
2021/07/30 07:38:05;;;;;;;11.10;5.60;;;19.00;99.90;;;;;;5034399;28;20026;-89
2021/07/30 07:40:34;;;;;;;9.85;5.55;;;19.10;99.90;;;;;;5019181;28;20113;-89
2021/07/30 07:43:02;;;;;;;9.45;4.70;;;19.20;99.90;;;;;;5022056;28;20045;-89
2021/07/30 07:45:29;;;;;;;11.95;5.35;;;19.30;99.90;;;;;;5040962;28;20125;-90
2021/07/30 07:47:57;;;;;;;9.40;4.65;;;19.40;99.90;;;;;;5041221;28;20048;-88
2021/07/30 07:50:33;;;;;;;7.25;4.00;;;19.50;99.90;;;;;;5030126;28;20053;-87
2021/07/30 07:53:13;;;;;;;9.50;4.70;;;19.50;99.90;;;;;;5046775;28;20045;-89
2021/07/30 07:55:58;;;;;;;12.68;5.07;;;19.60;99.90;;;;;;5049673;28;20072;-88
2021/07/30 07:58:25;;;;;;;9.85;4.95;;;19.60;99.90;;;;;;5042811;28;20034;-89
2021/07/30 08:00:58;;;;;;;7.43;3.58;;;19.70;99.90;;;;;;5034106;28;20042;-88
2021/07/30 08:03:28;;;;;;;7.72;4.60;;;19.80;99.90;;;;;;5002553;28;20034;-88
2021/07/30 08:06:07;;;;;;;12.27;5.05;;;19.90;99.90;;;;;;5034671;28;20042;-88
2021/07/30 08:08:38;;;;;;;10.88;5.28;;;20.00;99.90;;;;;;5018150;28;20474;-89
2021/07/30 08:11:04;;;;;;;9.75;5.20;;;20.10;99.90;;;;;;5035393;28;20073;-89
2021/07/30 08:13:35;;;;;;;12.50;5.50;;;20.10;99.90;;;;;;5019380;28;20037;-88
2021/07/30 08:16:13;;;;;;;10.35;4.80;;;20.20;99.90;;;;;;5017914;28;20422;-88
2021/07/30 08:18:44;;;;;;;8.18;3.83;;;20.40;99.90;;;;;;5041896;28;20041;-89
2021/07/30 08:21:36;;;;;;;10.95;5.32;;;20.60;99.90;;;;;;5016370;28;20497;-88
2021/07/30 08:24:11;;;;;;;8.98;4.40;;;20.80;99.90;;;;;;5033562;28;20060;-89
2021/07/30 08:27:04;;;;;;;9.70;4.13;;;20.90;99.90;;;;;;5044054;28;20430;-88
2021/07/30 08:29:37;;;;;;;7.40;3.37;;;21.10;99.90;;;;;;5053337;28;20037;-88
2021/07/30 08:32:07;;;;;;;7.55;3.38;;;21.20;99.90;;;;;;5049844;28;20310;-88
2021/07/30 08:34:37;;;;;;;7.47;3.33;;;21.30;99.90;;;;;;5053696;28;20503;-86
2021/07/30 08:37:05;;;;;;;5.47;2.78;;;21.50;99.90;;;;;;5042666;28;20066;-88
2021/07/30 08:39:33;;;;;;;8.23;3.17;;;21.60;99.90;;;;;;5034028;28;20452;-88
2021/07/30 08:42:02;;;;;;;8.07;3.13;;;21.70;99.90;;;;;;5040973;28;20040;-88
2021/07/30 08:44:34;;;;;;;10.85;3.22;;;21.70;99.90;;;;;;5041600;28;20029;-88
2021/07/30 08:47:02;;;;;;;7.90;3.10;;;21.70;99.90;;;;;;5050707;28;20028;-89
2021/07/30 08:49:35;;;;;;;8.02;3.30;;;21.70;99.90;;;;;;5020140;28;20040;-88
2021/07/30 08:52:14;;;;;;;10.47;3.30;;;21.70;99.90;;;;;;5029238;28;20554;-88
2021/07/30 08:54:43;;;;;;;5.97;2.70;;;21.80;99.90;;;;;;5043727;28;20041;-87
2021/07/30 08:57:11;;;;;;;6.90;3.50;;;21.70;99.90;;;;;;5048216;28;20081;-88
2021/07/30 08:59:44;;;;;;;6.93;3.10;;;21.80;99.90;;;;;;5036750;28;20043;-89
2021/07/30 09:02:11;;;;;;;4.90;2.80;;;21.90;99.90;;;;;;5011095;28;20076;-88
2021/07/30 09:04:40;;;;;;;5.35;2.95;;;22.00;99.90;;;;;;5029526;28;20075;-88
2021/07/30 09:07:09;;;;;;;5.43;2.47;;;22.20;99.90;;;;;;5037401;28;20139;-88
2021/07/30 09:09:50;;;;;;;7.78;3.80;;;22.30;99.90;;;;;;5049284;28;20053;-88
2021/07/30 09:12:21;;;;;;;6.43;2.97;;;22.30;99.50;;;;;;5041403;28;20068;-87
2021/07/30 09:14:48;;;;;;;5.85;2.58;;;22.40;99.50;;;;;;5052880;28;20131;-88
2021/07/30 09:17:15;;;;;;;5.55;2.80;;;22.50;99.50;;;;;;5057076;28;20033;-89
2021/07/30 09:20:00;;;;;;;5.18;2.70;;;22.70;99.40;;;;;;5053144;28;20037;-87
2021/07/30 09:22:27;;;;;;;5.03;2.92;;;22.90;98.90;;;;;;5041214;28;20056;-89
2021/07/30 09:24:58;;;;;;;7.85;3.05;;;23.00;98.60;;;;;;5048639;28;20123;-87
2021/07/30 09:27:34;;;;;;;5.80;2.50;;;23.00;98.40;;;;;;5037557;28;20045;-88
2021/07/30 09:30:17;;;;;;;6.18;3.28;;;23.10;98.50;;;;;;5039524;28;20037;-88
2021/07/30 09:32:43;;;;;;;6.68;3.28;;;23.20;98.20;;;;;;5039431;28;20120;-88
2021/07/30 09:35:54;;;;;;;6.50;2.30;;;23.20;97.70;;;;;;5049305;28;20036;-88
2021/07/30 09:38:33;;;;;;;6.05;2.63;;;23.40;97.80;;;;;;5055631;28;20128;-87
2021/07/30 09:41:14;;;;;;;6.63;3.30;;;23.60;97.50;;;;;;5053387;28;20040;-88
2021/07/30 09:43:44;;;;;;;6.07;2.78;;;24.10;96.90;;;;;;5038975;28;20501;-87
2021/07/30 09:46:14;;;;;;;5.47;2.70;;;24.40;96.40;;;;;;5032453;28;20120;-88
2021/07/30 09:48:54;;;;;;;6.95;3.58;;;24.60;95.90;;;;;;5051942;28;20055;-88
2021/07/30 09:51:24;;;;;;;7.35;2.95;;;24.50;95.40;;;;;;5035582;28;20401;-87
2021/07/30 09:53:53;;;;;;;5.35;2.60;;;24.50;95.80;;;;;;5068986;28;20435;-86
2021/07/30 09:56:22;;;;;;;5.20;2.72;;;24.50;95.80;;;;;;5041773;28;20029;-88
2021/07/30 09:58:56;;;;;;;7.55;2.80;;;24.60;95.60;;;;;;5033449;28;20536;-86
2021/07/30 10:01:23;;;;;;;5.97;3.17;;;24.60;95.40;;;;;;5046511;28;20132;-86
2021/07/30 10:03:54;;;;;;;5.82;3.05;;;24.60;95.00;;;;;;5052581;28;20025;-87
2021/07/30 10:06:21;;;;;;;5.72;2.22;;;24.60;95.10;;;;;;5017683;28;20135;-86
2021/07/30 10:08:50;;;;;;;7.82;3.00;;;24.80;95.10;;;;;;5069729;28;20400;-87
2021/07/30 10:11:19;;;;;;;5.00;2.75;;;24.90;94.20;;;;;;5050904;28;20041;-88
2021/07/30 10:14:13;;;;;;;4.95;3.13;;;25.00;94.20;;;;;;5045710;28;20072;-87
2021/07/30 10:16:49;;;;;;;5.45;2.70;;;25.20;93.80;;;;;;5042936;28;20484;-88
2021/07/30 10:19:17;;;;;;;6.03;2.90;;;25.90;93.90;;;;;;5047660;28;20037;-88
2021/07/30 10:21:43;;;;;;;6.38;2.58;;;26.30;93.10;;;;;;5028213;28;20103;-87
2021/07/30 10:24:10;;;;;;;4.55;2.10;;;26.20;92.90;;;;;;5044270;28;20072;-87
2021/07/30 10:26:38;;;;;;;4.45;2.08;;;26.00;93.30;;;;;;5013386;28;20054;-88
2021/07/30 10:29:07;;;;;;;3.53;1.70;;;25.90;93.30;;;;;;5013506;28;20042;-87
2021/07/30 10:31:53;;;;;;;4.40;2.10;;;25.70;93.60;;;;;;5012867;28;20041;-87
2021/07/30 10:34:48;;;;;;;4.95;2.05;;;25.60;93.80;;;;;;5028766;28;20025;-87
2021/07/30 10:37:38;;;;;;;4.22;1.98;;;25.40;93.40;;;;;;5028035;28;20045;-88
2021/07/30 10:40:28;;;;;;;7.95;2.63;;;25.40;93.50;;;;;;5001950;28;20504;-88
2021/07/30 10:43:16;;;;;;;4.35;2.30;;;25.80;93.60;;;;;;5030483;28;20042;-88
2021/07/30 10:45:43;;;;;;;3.75;1.83;;;26.10;92.90;;;;;;5015577;28;20026;-87
2021/07/30 10:48:21;;;;;;;3.80;1.80;;;26.20;93.10;;;;;;5022256;28;20061;-88
2021/07/30 10:50:56;;;;;;;3.30;1.60;;;26.50;93.00;;;;;;5009566;28;20041;-89
2021/07/30 10:53:43;;;;;;;4.55;2.03;;;27.30;92.60;;;;;;5015437;28;20045;-89
2021/07/30 10:56:18;;;;;;;3.63;1.90;;;28.40;91.80;;;;;;5006696;28;20044;-89
2021/07/30 10:58:53;;;;;;;3.40;1.90;;;28.60;90.00;;;;;;5009851;28;20026;-88
2021/07/30 11:01:58;;;;;;;2.70;1.48;;;28.30;90.10;;;;;;5030511;28;20370;-88
2021/07/30 11:04:25;;;;;;;6.82;2.30;;;28.50;90.10;;;;;;5006098;28;20069;-91
2021/07/30 11:06:58;;;;;;;5.22;2.03;;;28.10;88.90;;;;;;5015344;28;20455;-89
2021/07/30 11:09:36;;;;;;;4.38;1.95;;;27.60;89.10;;;;;;5016327;28;20045;-90
2021/07/30 11:12:19;;;;;;;3.03;1.70;;;27.20;90.20;;;;;;5033338;28;20052;-88
2021/07/30 11:14:48;;;;;;;4.13;1.80;;;26.90;90.70;;;;;;5033488;28;20095;-89
2021/07/30 11:17:17;;;;;;;3.83;2.15;;;26.60;91.00;;;;;;5014298;28;20042;-89
2021/07/30 11:19:51;;;;;;;3.90;1.40;;;26.40;91.00;;;;;;5000598;28;20529;-89
2021/07/30 11:22:26;;;;;;;2.50;1.50;;;26.30;91.40;;;;;;5031378;28;20128;-89
2021/07/30 11:24:57;;;;;;;2.92;1.70;;;26.30;91.70;;;;;;5044720;28;20397;-89
2021/07/30 11:27:25;;;;;;;3.30;1.42;;;26.60;91.40;;;;;;5015459;28;20040;-90
2021/07/30 11:29:56;;;;;;;4.45;1.70;;;27.20;91.40;;;;;;5025291;28;20367;-88
2021/07/30 11:32:24;;;;;;;5.63;2.03;;;27.70;90.70;;;;;;5023863;28;20037;-89
2021/07/30 11:34:51;;;;;;;5.93;2.20;;;28.20;88.00;;;;;;5026569;28;20034;-88
2021/07/30 11:37:28;;;;;;;4.18;2.35;;;28.50;87.20;;;;;;5051170;28;20095;-89
2021/07/30 11:39:57;;;;;;;5.97;2.33;;;28.60;85.40;;;;;;5047479;28;20045;-89
2021/07/30 11:42:34;;;;;;;3.70;2.17;;;28.60;85.20;;;;;;5045674;28;20470;-90
2021/07/30 11:45:07;;;;;;;3.50;2.03;;;28.30;84.80;;;;;;5052624;28;20041;-89
2021/07/30 11:47:55;;;;;;;2.83;1.65;;;27.90;85.10;;;;;;5055211;28;20474;-88
2021/07/30 11:50:28;;;;;;;3.70;2.15;;;27.60;86.20;;;;;;5044483;28;20104;-90
2021/07/30 11:53:08;;;;;;;2.63;1.98;;;27.60;86.10;;;;;;5053038;28;20068;-89
2021/07/30 11:55:39;;;;;;;2.28;1.48;;;27.70;86.10;;;;;;5018249;28;20041;-88
2021/07/30 11:58:10;;;;;;;5.22;2.10;;;27.90;86.20;;;;;;5042692;28;20124;-87
2021/07/30 12:00:37;;;;;;;3.03;2.35;;;27.90;85.00;;;;;;5059516;28;20128;-87
2021/07/30 12:03:19;;;;;;;3.47;2.20;;;27.60;84.80;;;;;;5018638;28;20077;-88
2021/07/30 12:05:52;;;;;;;3.50;2.10;;;27.10;85.30;;;;;;5036560;28;20129;-87
2021/07/30 12:08:25;;;;;;;4.35;1.98;;;26.80;86.30;;;;;;5035352;28;20042;-88
2021/07/30 12:10:52;;;;;;;4.70;1.95;;;26.60;87.40;;;;;;5037460;28;20044;-89
2021/07/30 12:13:23;;;;;;;3.38;1.92;;;26.50;87.60;;;;;;5035000;28;20038;-89
2021/07/30 12:15:50;;;;;;;3.08;2.17;;;26.40;87.90;;;;;;5026738;28;20059;-89
2021/07/30 12:18:22;;;;;;;3.17;1.70;;;26.50;88.70;;;;;;5025038;28;20044;-87
2021/07/30 12:20:49;;;;;;;4.07;1.83;;;26.90;88.80;;;;;;5041757;28;20408;-89
2021/07/30 12:23:16;;;;;;;3.22;2.00;;;27.20;88.50;;;;;;5031644;28;20046;-93
2021/07/30 12:25:48;;;;;;;3.55;2.00;;;27.20;88.50;;;;;;5050570;28;20061;-90
2021/07/30 12:28:17;;;;;;;2.67;1.98;;;27.00;87.20;;;;;;5019999;28;20754;-89
2021/07/30 12:30:51;;;;;;;4.20;2.05;;;26.70;88.00;;;;;;5016312;28;20029;-87
2021/07/30 12:33:31;;;;;;;2.85;1.75;;;26.40;88.70;;;;;;5019866;28;20036;-88
2021/07/30 12:36:11;;;;;;;4.45;2.00;;;26.20;89.80;;;;;;5037328;28;20041;-88
2021/07/30 12:38:57;;;;;;;3.53;2.50;;;26.00;90.00;;;;;;5032542;28;20091;-88
2021/07/30 12:41:26;;;;;;;3.30;2.20;;;25.70;90.20;;;;;;5039352;28;20067;-88
2021/07/30 12:44:09;;;;;;;4.97;2.50;;;25.50;90.60;;;;;;5022011;28;20440;-88
2021/07/30 12:46:43;;;;;;;3.67;2.47;;;25.20;92.00;;;;;;5025900;28;20037;-86
2021/07/30 12:49:14;;;;;;;4.45;2.53;;;24.10;95.00;;;;;;5017417;28;20516;-85
2021/07/30 12:51:45;;;;;;;3.42;2.22;;;23.20;97.60;;;;;;5035039;28;20045;-86
2021/07/30 12:54:15;;;;;;;4.55;2.67;;;22.80;99.90;;;;;;5035772;28;20412;-85
2021/07/30 12:57:07;;;;;;;4.78;3.20;;;22.40;99.90;;;;;;5033690;28;20036;-87
2021/07/30 12:59:59;;;;;;;4.28;2.90;;;22.20;99.90;;;;;;5033750;28;20041;-87
2021/07/30 13:02:39;;;;;;;3.95;3.22;;;22.10;99.90;;;;;;5036934;28;20039;-87
2021/07/30 13:05:11;;;;;;;3.85;2.70;;;22.10;99.90;;;;;;5032330;28;20049;-88
2021/07/30 13:07:38;;;;;;;4.22;2.83;;;22.30;99.90;;;;;;5020368;28;20037;-91